sensor_id;sensor_type;location;lat;lon;timestamp;temperature;humidity
12847;DHT22;6492;48.128;8.320;2023-03-23T00:01:22;9.00;11.10
12847;DHT22;6492;48.128;8.320;2023-03-23T00:05:26;9.00;11.40
12847;DHT22;6492;48.128;8.320;2023-03-23T00:09:30;8.90;11.60
12847;DHT22;6492;48.128;8.320;2023-03-23T00:13:34;8.70;12.10
12847;DHT22;6492;48.128;8.320;2023-03-23T00:17:37;8.70;12.80
12847;DHT22;6492;48.128;8.320;2023-03-23T00:21:39;8.60;13.40
12847;DHT22;6492;48.128;8.320;2023-03-23T00:25:45;8.60;13.90
12847;DHT22;6492;48.128;8.320;2023-03-23T00:29:47;8.60;13.90
12847;DHT22;6492;48.128;8.320;2023-03-23T00:33:52;8.60;14.20
12847;DHT22;6492;48.128;8.320;2023-03-23T00:37:54;8.60;14.50
12847;DHT22;6492;48.128;8.320;2023-03-23T00:41:58;8.70;14.40
12847;DHT22;6492;48.128;8.320;2023-03-23T00:46:03;8.70;15.00
12847;DHT22;6492;48.128;8.320;2023-03-23T00:50:09;8.90;15.10
12847;DHT22;6492;48.128;8.320;2023-03-23T00:54:13;9.00;14.80
12847;DHT22;6492;48.128;8.320;2023-03-23T00:58:17;9.20;14.50
12847;DHT22;6492;48.128;8.320;2023-03-23T01:02:18;9.40;13.90
12847;DHT22;6492;48.128;8.320;2023-03-23T01:06:24;9.60;13.60
12847;DHT22;6492;48.128;8.320;2023-03-23T01:10:26;9.70;13.20
12847;DHT22;6492;48.128;8.320;2023-03-23T01:14:29;9.90;13.10
12847;DHT22;6492;48.128;8.320;2023-03-23T01:18:31;10.10;13.00
12847;DHT22;6492;48.128;8.320;2023-03-23T01:22:33;10.10;13.30
12847;DHT22;6492;48.128;8.320;2023-03-23T01:26:36;10.10;13.50
12847;DHT22;6492;48.128;8.320;2023-03-23T01:30:39;10.00;14.10
12847;DHT22;6492;48.128;8.320;2023-03-23T01:34:41;10.00;14.60
12847;DHT22;6492;48.128;8.320;2023-03-23T01:38:44;9.90;15.00
12847;DHT22;6492;48.128;8.320;2023-03-23T01:42:46;9.90;15.30
12847;DHT22;6492;48.128;8.320;2023-03-23T01:46:49;9.80;15.30
12847;DHT22;6492;48.128;8.320;2023-03-23T01:50:55;9.90;15.00
12847;DHT22;6492;48.128;8.320;2023-03-23T01:54:57;10.00;14.90
12847;DHT22;6492;48.128;8.320;2023-03-23T01:59:07;10.00;14.80
12847;DHT22;6492;48.128;8.320;2023-03-23T02:03:12;9.90;14.80
12847;DHT22;6492;48.128;8.320;2023-03-23T02:07:18;9.90;14.60
12847;DHT22;6492;48.128;8.320;2023-03-23T02:11:22;10.00;14.20
12847;DHT22;6492;48.128;8.320;2023-03-23T02:15:25;10.00;14.20
12847;DHT22;6492;48.128;8.320;2023-03-23T02:19:41;9.90;14.00
12847;DHT22;6492;48.128;8.320;2023-03-23T02:24:04;9.90;14.00
12847;DHT22;6492;48.128;8.320;2023-03-23T02:28:24;9.90;14.20
12847;DHT22;6492;48.128;8.320;2023-03-23T02:37:13;10.00;13.00
12847;DHT22;6492;48.128;8.320;2023-03-23T02:41:16;10.00;12.70
12847;DHT22;6492;48.128;8.320;2023-03-23T02:45:21;9.90;12.80
12847;DHT22;6492;48.128;8.320;2023-03-23T02:49:25;9.90;12.50
12847;DHT22;6492;48.128;8.320;2023-03-23T02:53:32;9.80;12.70
12847;DHT22;6492;48.128;8.320;2023-03-23T02:57:35;9.70;12.30
12847;DHT22;6492;48.128;8.320;2023-03-23T03:01:59;9.60;12.50
12847;DHT22;6492;48.128;8.320;2023-03-23T03:06:07;9.50;12.90
12847;DHT22;6492;48.128;8.320;2023-03-23T03:10:18;9.50;12.80
12847;DHT22;6492;48.128;8.320;2023-03-23T03:14:28;9.50;12.40
12847;DHT22;6492;48.128;8.320;2023-03-23T03:18:34;9.50;12.30
12847;DHT22;6492;48.128;8.320;2023-03-23T03:22:38;9.70;12.00
12847;DHT22;6492;48.128;8.320;2023-03-23T03:26:46;9.80;11.40
12847;DHT22;6492;48.128;8.320;2023-03-23T03:30:52;10.00;10.40
12847;DHT22;6492;48.128;8.320;2023-03-23T03:34:55;10.20;10.10
12847;DHT22;6492;48.128;8.320;2023-03-23T03:38:59;10.20;9.50
12847;DHT22;6492;48.128;8.320;2023-03-23T03:43:02;10.20;9.90
12847;DHT22;6492;48.128;8.320;2023-03-23T03:47:04;10.10;10.00
12847;DHT22;6492;48.128;8.320;2023-03-23T03:51:06;10.00;10.20
12847;DHT22;6492;48.128;8.320;2023-03-23T03:55:09;9.90;10.70
12847;DHT22;6492;48.128;8.320;2023-03-23T03:59:13;9.70;11.00
12847;DHT22;6492;48.128;8.320;2023-03-23T04:03:14;9.60;11.50
12847;DHT22;6492;48.128;8.320;2023-03-23T04:07:16;9.60;11.80
12847;DHT22;6492;48.128;8.320;2023-03-23T04:11:18;9.60;11.30
12847;DHT22;6492;48.128;8.320;2023-03-23T04:15:21;9.70;11.50
12847;DHT22;6492;48.128;8.320;2023-03-23T04:19:24;9.70;11.60
12847;DHT22;6492;48.128;8.320;2023-03-23T04:23:27;9.80;10.70
12847;DHT22;6492;48.128;8.320;2023-03-23T04:27:32;9.90;10.90
12847;DHT22;6492;48.128;8.320;2023-03-23T04:31:35;9.90;10.80
12847;DHT22;6492;48.128;8.320;2023-03-23T04:35:37;9.90;10.70
12847;DHT22;6492;48.128;8.320;2023-03-23T04:39:39;9.90;10.60
12847;DHT22;6492;48.128;8.320;2023-03-23T04:43:44;10.00;10.20
12847;DHT22;6492;48.128;8.320;2023-03-23T04:47:47;10.00;10.20
12847;DHT22;6492;48.128;8.320;2023-03-23T04:51:53;10.00;10.40
12847;DHT22;6492;48.128;8.320;2023-03-23T04:55:55;10.00;9.60
12847;DHT22;6492;48.128;8.320;2023-03-23T04:59:56;10.00;9.50
12847;DHT22;6492;48.128;8.320;2023-03-23T05:03:59;10.00;10.00
12847;DHT22;6492;48.128;8.320;2023-03-23T05:08:03;10.00;9.90
12847;DHT22;6492;48.128;8.320;2023-03-23T05:12:05;10.10;9.10
12847;DHT22;6492;48.128;8.320;2023-03-23T05:16:07;10.20;8.80
12847;DHT22;6492;48.128;8.320;2023-03-23T05:20:12;10.30;8.30
12847;DHT22;6492;48.128;8.320;2023-03-23T05:24:15;10.50;8.40
12847;DHT22;6492;48.128;8.320;2023-03-23T05:28:16;10.50;8.10
12847;DHT22;6492;48.128;8.320;2023-03-23T05:32:19;10.60;8.30
12847;DHT22;6492;48.128;8.320;2023-03-23T05:36:22;10.60;8.70
12847;DHT22;6492;48.128;8.320;2023-03-23T05:40:25;10.60;8.70
12847;DHT22;6492;48.128;8.320;2023-03-23T05:44:28;10.70;8.90
12847;DHT22;6492;48.128;8.320;2023-03-23T05:48:30;10.80;9.10
12847;DHT22;6492;48.128;8.320;2023-03-23T05:52:33;10.80;9.30
12847;DHT22;6492;48.128;8.320;2023-03-23T05:56:36;10.80;9.70
12847;DHT22;6492;48.128;8.320;2023-03-23T06:00:38;10.90;9.60
12847;DHT22;6492;48.128;8.320;2023-03-23T06:04:41;11.00;10.10
12847;DHT22;6492;48.128;8.320;2023-03-23T06:08:44;11.00;10.10
12847;DHT22;6492;48.128;8.320;2023-03-23T06:12:46;11.10;10.80
12847;DHT22;6492;48.128;8.320;2023-03-23T06:16:47;11.00;10.80
12847;DHT22;6492;48.128;8.320;2023-03-23T06:20:49;10.90;12.00
12847;DHT22;6492;48.128;8.320;2023-03-23T06:24:55;10.90;12.80
12847;DHT22;6492;48.128;8.320;2023-03-23T06:28:57;10.80;13.80
12847;DHT22;6492;48.128;8.320;2023-03-23T06:32:59;10.70;15.30
12847;DHT22;6492;48.128;8.320;2023-03-23T06:37:02;10.50;16.60
12847;DHT22;6492;48.128;8.320;2023-03-23T06:41:05;10.30;18.10
12847;DHT22;6492;48.128;8.320;2023-03-23T06:45:08;10.10;19.80
12847;DHT22;6492;48.128;8.320;2023-03-23T06:49:10;9.90;22.10
12847;DHT22;6492;48.128;8.320;2023-03-23T06:53:12;9.80;23.80
12847;DHT22;6492;48.128;8.320;2023-03-23T06:57:15;9.70;25.80
12847;DHT22;6492;48.128;8.320;2023-03-23T07:01:17;9.60;26.30
12847;DHT22;6492;48.128;8.320;2023-03-23T07:05:19;9.60;26.10
12847;DHT22;6492;48.128;8.320;2023-03-23T07:09:21;9.70;26.10
12847;DHT22;6492;48.128;8.320;2023-03-23T07:13:25;9.80;25.20
12847;DHT22;6492;48.128;8.320;2023-03-23T07:17:27;9.80;26.30
12847;DHT22;6492;48.128;8.320;2023-03-23T07:21:28;9.80;26.10
12847;DHT22;6492;48.128;8.320;2023-03-23T07:25:30;9.80;26.30
12847;DHT22;6492;48.128;8.320;2023-03-23T07:29:34;9.80;28.40
12847;DHT22;6492;48.128;8.320;2023-03-23T07:33:38;9.70;27.60
12847;DHT22;6492;48.128;8.320;2023-03-23T07:37:40;9.80;29.10
12847;DHT22;6492;48.128;8.320;2023-03-23T07:41:42;9.90;31.60
12847;DHT22;6492;48.128;8.320;2023-03-23T07:45:45;9.90;30.60
12847;DHT22;6492;48.128;8.320;2023-03-23T07:49:47;10.10;32.10
12847;DHT22;6492;48.128;8.320;2023-03-23T07:53:49;10.20;31.80
12847;DHT22;6492;48.128;8.320;2023-03-23T07:57:53;10.10;31.60
12847;DHT22;6492;48.128;8.320;2023-03-23T08:01:56;10.10;31.00
12847;DHT22;6492;48.128;8.320;2023-03-23T08:05:59;10.20;30.50
12847;DHT22;6492;48.128;8.320;2023-03-23T08:10:01;10.20;33.80
12847;DHT22;6492;48.128;8.320;2023-03-23T08:14:04;10.10;34.80
12847;DHT22;6492;48.128;8.320;2023-03-23T08:18:07;10.00;33.40
12847;DHT22;6492;48.128;8.320;2023-03-23T08:22:12;10.10;33.20
12847;DHT22;6492;48.128;8.320;2023-03-23T08:26:14;10.10;30.00
12847;DHT22;6492;48.128;8.320;2023-03-23T08:30:19;10.10;32.90
12847;DHT22;6492;48.128;8.320;2023-03-23T08:34:22;10.10;32.60
12847;DHT22;6492;48.128;8.320;2023-03-23T08:38:25;10.20;32.80
12847;DHT22;6492;48.128;8.320;2023-03-23T08:42:27;10.30;32.50
12847;DHT22;6492;48.128;8.320;2023-03-23T08:46:29;10.30;31.40
12847;DHT22;6492;48.128;8.320;2023-03-23T08:50:32;10.30;32.10
12847;DHT22;6492;48.128;8.320;2023-03-23T08:54:34;10.20;35.30
12847;DHT22;6492;48.128;8.320;2023-03-23T08:58:36;10.10;37.60
12847;DHT22;6492;48.128;8.320;2023-03-23T09:02:39;10.20;37.20
12847;DHT22;6492;48.128;8.320;2023-03-23T09:06:43;10.40;36.40
12847;DHT22;6492;48.128;8.320;2023-03-23T09:10:46;10.50;34.40
12847;DHT22;6492;48.128;8.320;2023-03-23T09:14:49;10.60;33.30
12847;DHT22;6492;48.128;8.320;2023-03-23T09:18:51;10.80;32.80
12847;DHT22;6492;48.128;8.320;2023-03-23T09:22:56;10.80;32.90
12847;DHT22;6492;48.128;8.320;2023-03-23T09:26:58;10.80;31.60
12847;DHT22;6492;48.128;8.320;2023-03-23T09:31:00;10.80;31.50
12847;DHT22;6492;48.128;8.320;2023-03-23T09:35:02;11.00;31.60
12847;DHT22;6492;48.128;8.320;2023-03-23T09:39:06;11.10;31.90
12847;DHT22;6492;48.128;8.320;2023-03-23T09:47:38;11.30;29.30
12847;DHT22;6492;48.128;8.320;2023-03-23T09:51:45;11.30;28.30
12847;DHT22;6492;48.128;8.320;2023-03-23T09:55:49;11.50;28.10
12847;DHT22;6492;48.128;8.320;2023-03-23T09:59:56;11.50;26.60
12847;DHT22;6492;48.128;8.320;2023-03-23T10:04:03;11.40;25.60
12847;DHT22;6492;48.128;8.320;2023-03-23T10:08:10;11.50;25.70
12847;DHT22;6492;48.128;8.320;2023-03-23T10:12:25;11.80;25.70
12847;DHT22;6492;48.128;8.320;2023-03-23T10:16:32;12.10;24.20
12847;DHT22;6492;48.128;8.320;2023-03-23T10:20:44;12.30;22.40
12847;DHT22;6492;48.128;8.320;2023-03-23T10:24:51;12.50;21.00
12847;DHT22;6492;48.128;8.320;2023-03-23T10:28:58;12.70;22.10
12847;DHT22;6492;48.128;8.320;2023-03-23T10:33:04;12.90;19.40
12847;DHT22;6492;48.128;8.320;2023-03-23T10:37:12;13.30;22.40
12847;DHT22;6492;48.128;8.320;2023-03-23T10:41:16;13.50;18.60
12847;DHT22;6492;48.128;8.320;2023-03-23T10:45:22;13.40;18.20
12847;DHT22;6492;48.128;8.320;2023-03-23T10:49:28;13.40;16.60
12847;DHT22;6492;48.128;8.320;2023-03-23T10:53:36;13.40;18.80
12847;DHT22;6492;48.128;8.320;2023-03-23T10:57:41;13.50;16.70
12847;DHT22;6492;48.128;8.320;2023-03-23T11:01:45;13.70;14.80
12847;DHT22;6492;48.128;8.320;2023-03-23T11:05:50;13.80;14.30
12847;DHT22;6492;48.128;8.320;2023-03-23T11:09:55;14.00;13.90
12847;DHT22;6492;48.128;8.320;2023-03-23T11:13:59;14.10;11.90
12847;DHT22;6492;48.128;8.320;2023-03-23T11:18:06;14.10;11.20
12847;DHT22;6492;48.128;8.320;2023-03-23T11:22:15;14.10;12.80
12847;DHT22;6492;48.128;8.320;2023-03-23T11:26:21;14.40;9.30
12847;DHT22;6492;48.128;8.320;2023-03-23T11:30:26;14.50;11.20
12847;DHT22;6492;48.128;8.320;2023-03-23T11:34:32;15.10;10.10
12847;DHT22;6492;48.128;8.320;2023-03-23T11:38:36;15.60;8.50
12847;DHT22;6492;48.128;8.320;2023-03-23T11:42:43;15.90;5.30
12847;DHT22;6492;48.128;8.320;2023-03-23T11:46:52;15.50;7.00
12847;DHT22;6492;48.128;8.320;2023-03-23T11:51:00;15.80;4.60
12847;DHT22;6492;48.128;8.320;2023-03-23T11:55:08;16.60;5.00
12847;DHT22;6492;48.128;8.320;2023-03-23T11:59:27;16.90;1.00
12847;DHT22;6492;48.128;8.320;2023-03-23T12:03:47;16.60;2.70
12847;DHT22;6492;48.128;8.320;2023-03-23T12:07:59;17.10;3.00
12847;DHT22;6492;48.128;8.320;2023-03-23T12:12:11;17.50;1.50
12847;DHT22;6492;48.128;8.320;2023-03-23T12:16:20;16.90;1.00
12847;DHT22;6492;48.128;8.320;2023-03-23T12:20:31;16.30;1.70
12847;DHT22;6492;48.128;8.320;2023-03-23T12:24:55;15.80;1.50
12847;DHT22;6492;48.128;8.320;2023-03-23T12:29:18;15.50;3.50
12847;DHT22;6492;48.128;8.320;2023-03-23T12:33:33;15.20;5.10
12847;DHT22;6492;48.128;8.320;2023-03-23T12:37:47;15.00;6.10
12847;DHT22;6492;48.128;8.320;2023-03-23T12:41:59;14.60;5.60
12847;DHT22;6492;48.128;8.320;2023-03-23T12:46:21;14.20;7.80
12847;DHT22;6492;48.128;8.320;2023-03-23T12:50:29;13.90;8.70
12847;DHT22;6492;48.128;8.320;2023-03-23T12:54:36;13.90;7.40
12847;DHT22;6492;48.128;8.320;2023-03-23T12:58:44;14.00;8.20
12847;DHT22;6492;48.128;8.320;2023-03-23T13:02:49;14.10;6.70
12847;DHT22;6492;48.128;8.320;2023-03-23T13:06:51;14.10;6.80
12847;DHT22;6492;48.128;8.320;2023-03-23T13:10:57;14.10;6.30
12847;DHT22;6492;48.128;8.320;2023-03-23T13:15:08;14.10;7.10
12847;DHT22;6492;48.128;8.320;2023-03-23T13:19:26;14.00;7.40
12847;DHT22;6492;48.128;8.320;2023-03-23T13:23:43;13.70;9.00
12847;DHT22;6492;48.128;8.320;2023-03-23T13:27:56;13.50;11.40
12847;DHT22;6492;48.128;8.320;2023-03-23T13:32:11;13.20;11.60
12847;DHT22;6492;48.128;8.320;2023-03-23T13:36:25;12.90;14.20
12847;DHT22;6492;48.128;8.320;2023-03-23T13:40:29;12.90;14.60
12847;DHT22;6492;48.128;8.320;2023-03-23T13:44:44;12.80;13.00
12847;DHT22;6492;48.128;8.320;2023-03-23T13:49:17;12.80;14.10
12847;DHT22;6492;48.128;8.320;2023-03-23T13:53:26;12.90;14.20
12847;DHT22;6492;48.128;8.320;2023-03-23T13:57:38;12.90;15.60
12847;DHT22;6492;48.128;8.320;2023-03-23T14:01:49;12.80;13.40
12847;DHT22;6492;48.128;8.320;2023-03-23T14:06:02;12.90;17.00
12847;DHT22;6492;48.128;8.320;2023-03-23T14:10:06;13.00;17.30
12847;DHT22;6492;48.128;8.320;2023-03-23T14:14:14;13.10;16.50
12847;DHT22;6492;48.128;8.320;2023-03-23T14:18:19;13.30;17.20
12847;DHT22;6492;48.128;8.320;2023-03-23T14:22:26;13.60;18.30
12847;DHT22;6492;48.128;8.320;2023-03-23T14:26:28;13.80;13.80
12847;DHT22;6492;48.128;8.320;2023-03-23T14:30:35;13.70;16.90
12847;DHT22;6492;48.128;8.320;2023-03-23T14:34:37;13.90;15.60
12847;DHT22;6492;48.128;8.320;2023-03-23T14:38:40;13.90;15.50
12847;DHT22;6492;48.128;8.320;2023-03-23T14:42:42;13.80;13.90
12847;DHT22;6492;48.128;8.320;2023-03-23T14:46:45;13.70;15.70
12847;DHT22;6492;48.128;8.320;2023-03-23T14:50:49;13.40;16.80
12847;DHT22;6492;48.128;8.320;2023-03-23T14:54:53;13.40;17.20
12847;DHT22;6492;48.128;8.320;2023-03-23T14:59:03;13.30;19.10
12847;DHT22;6492;48.128;8.320;2023-03-23T15:03:07;13.20;18.30
12847;DHT22;6492;48.128;8.320;2023-03-23T15:07:14;13.00;18.20
12847;DHT22;6492;48.128;8.320;2023-03-23T15:11:24;12.80;19.20
12847;DHT22;6492;48.128;8.320;2023-03-23T15:15:28;12.70;19.90
12847;DHT22;6492;48.128;8.320;2023-03-23T15:19:33;12.70;21.10
12847;DHT22;6492;48.128;8.320;2023-03-23T15:23:41;12.80;19.70
12847;DHT22;6492;48.128;8.320;2023-03-23T15:27:49;12.70;19.50
12847;DHT22;6492;48.128;8.320;2023-03-23T15:31:53;12.70;19.00
12847;DHT22;6492;48.128;8.320;2023-03-23T15:35:56;12.90;19.10
12847;DHT22;6492;48.128;8.320;2023-03-23T15:39:59;12.80;17.80
12847;DHT22;6492;48.128;8.320;2023-03-23T15:44:12;12.80;18.60
12847;DHT22;6492;48.128;8.320;2023-03-23T15:48:14;12.60;18.50
12847;DHT22;6492;48.128;8.320;2023-03-23T15:52:15;12.70;19.90
12847;DHT22;6492;48.128;8.320;2023-03-23T15:56:18;12.60;20.80
12847;DHT22;6492;48.128;8.320;2023-03-23T16:00:24;12.50;20.80
12847;DHT22;6492;48.128;8.320;2023-03-23T16:04:27;12.40;21.60
12847;DHT22;6492;48.128;8.320;2023-03-23T16:08:29;12.30;22.80
12847;DHT22;6492;48.128;8.320;2023-03-23T16:12:49;12.20;22.20
12847;DHT22;6492;48.128;8.320;2023-03-23T16:16:53;12.10;22.40
12847;DHT22;6492;48.128;8.320;2023-03-23T16:20:54;11.80;23.20
12847;DHT22;6492;48.128;8.320;2023-03-23T16:25:17;11.60;24.40
12847;DHT22;6492;48.128;8.320;2023-03-23T16:29:20;11.50;24.30
12847;DHT22;6492;48.128;8.320;2023-03-23T16:33:26;11.40;26.50
12847;DHT22;6492;48.128;8.320;2023-03-23T16:37:28;11.30;27.40
12847;DHT22;6492;48.128;8.320;2023-03-23T16:41:42;11.20;27.70
12847;DHT22;6492;48.128;8.320;2023-03-23T16:45:45;11.10;27.40
12847;DHT22;6492;48.128;8.320;2023-03-23T16:49:48;10.90;29.10
12847;DHT22;6492;48.128;8.320;2023-03-23T16:53:50;10.80;28.70
12847;DHT22;6492;48.128;8.320;2023-03-23T16:57:53;10.70;30.20
12847;DHT22;6492;48.128;8.320;2023-03-23T17:01:59;10.60;31.70
12847;DHT22;6492;48.128;8.320;2023-03-23T17:06:04;10.50;32.30
12847;DHT22;6492;48.128;8.320;2023-03-23T17:10:16;10.40;33.00
12847;DHT22;6492;48.128;8.320;2023-03-23T17:14:18;10.40;34.00
12847;DHT22;6492;48.128;8.320;2023-03-23T17:18:20;10.20;35.30
12847;DHT22;6492;48.128;8.320;2023-03-23T17:22:24;10.10;35.60
12847;DHT22;6492;48.128;8.320;2023-03-23T17:26:26;10.00;36.50
12847;DHT22;6492;48.128;8.320;2023-03-23T17:30:28;9.90;38.40
12847;DHT22;6492;48.128;8.320;2023-03-23T17:34:30;9.80;40.30
12847;DHT22;6492;48.128;8.320;2023-03-23T17:38:33;9.70;41.60
12847;DHT22;6492;48.128;8.320;2023-03-23T17:42:35;9.60;42.90
12847;DHT22;6492;48.128;8.320;2023-03-23T17:46:37;9.50;44.80
12847;DHT22;6492;48.128;8.320;2023-03-23T17:50:39;9.40;46.90
12847;DHT22;6492;48.128;8.320;2023-03-23T17:54:42;9.30;47.50
12847;DHT22;6492;48.128;8.320;2023-03-23T17:58:44;9.30;48.00
12847;DHT22;6492;48.128;8.320;2023-03-23T18:02:45;9.20;48.50
12847;DHT22;6492;48.128;8.320;2023-03-23T18:06:48;9.10;49.80
12847;DHT22;6492;48.128;8.320;2023-03-23T18:11:00;9.00;50.50
12847;DHT22;6492;48.128;8.320;2023-03-23T18:15:02;8.90;52.20
12847;DHT22;6492;48.128;8.320;2023-03-23T18:19:06;8.90;53.10
12847;DHT22;6492;48.128;8.320;2023-03-23T18:23:09;8.80;54.00
12847;DHT22;6492;48.128;8.320;2023-03-23T18:27:14;8.80;54.70
12847;DHT22;6492;48.128;8.320;2023-03-23T18:31:17;8.70;55.60
12847;DHT22;6492;48.128;8.320;2023-03-23T18:35:21;8.70;56.60
12847;DHT22;6492;48.128;8.320;2023-03-23T18:39:23;8.70;57.00
12847;DHT22;6492;48.128;8.320;2023-03-23T18:43:26;8.70;57.10
12847;DHT22;6492;48.128;8.320;2023-03-23T18:47:35;8.60;57.40
12847;DHT22;6492;48.128;8.320;2023-03-23T18:51:38;8.60;58.10
12847;DHT22;6492;48.128;8.320;2023-03-23T18:55:39;8.60;58.10
12847;DHT22;6492;48.128;8.320;2023-03-23T18:59:43;8.50;58.30
12847;DHT22;6492;48.128;8.320;2023-03-23T19:03:47;8.50;58.70
12847;DHT22;6492;48.128;8.320;2023-03-23T19:07:49;8.50;59.70
12847;DHT22;6492;48.128;8.320;2023-03-23T19:11:53;8.50;60.20
12847;DHT22;6492;48.128;8.320;2023-03-23T19:15:56;8.50;60.30
12847;DHT22;6492;48.128;8.320;2023-03-23T19:19:58;8.50;60.30
12847;DHT22;6492;48.128;8.320;2023-03-23T19:24:01;8.50;60.60
12847;DHT22;6492;48.128;8.320;2023-03-23T19:28:05;8.50;60.80
12847;DHT22;6492;48.128;8.320;2023-03-23T19:32:08;8.50;60.50
12847;DHT22;6492;48.128;8.320;2023-03-23T19:36:10;8.50;59.90
12847;DHT22;6492;48.128;8.320;2023-03-23T19:40:14;8.50;58.80
12847;DHT22;6492;48.128;8.320;2023-03-23T19:44:17;8.50;58.40
12847;DHT22;6492;48.128;8.320;2023-03-23T19:48:22;8.50;56.50
12847;DHT22;6492;48.128;8.320;2023-03-23T19:52:29;8.60;56.30
12847;DHT22;6492;48.128;8.320;2023-03-23T19:56:37;8.60;56.00
12847;DHT22;6492;48.128;8.320;2023-03-23T20:00:40;8.60;55.30
12847;DHT22;6492;48.128;8.320;2023-03-23T20:04:48;8.60;54.80
12847;DHT22;6492;48.128;8.320;2023-03-23T20:08:52;8.60;54.40
12847;DHT22;6492;48.128;8.320;2023-03-23T20:12:54;8.60;54.90
12847;DHT22;6492;48.128;8.320;2023-03-23T20:17:02;8.60;55.80
12847;DHT22;6492;48.128;8.320;2023-03-23T20:21:07;8.60;56.30
12847;DHT22;6492;48.128;8.320;2023-03-23T20:25:09;8.60;56.70
12847;DHT22;6492;48.128;8.320;2023-03-23T20:29:14;8.60;56.80
12847;DHT22;6492;48.128;8.320;2023-03-23T20:33:29;8.60;57.00
12847;DHT22;6492;48.128;8.320;2023-03-23T20:37:39;8.60;57.00
12847;DHT22;6492;48.128;8.320;2023-03-23T20:41:47;8.60;56.90
12847;DHT22;6492;48.128;8.320;2023-03-23T20:45:50;8.60;57.40
12847;DHT22;6492;48.128;8.320;2023-03-23T20:49:51;8.60;57.60
12847;DHT22;6492;48.128;8.320;2023-03-23T20:53:55;8.50;57.40
12847;DHT22;6492;48.128;8.320;2023-03-23T20:57:57;8.60;57.50
12847;DHT22;6492;48.128;8.320;2023-03-23T21:01:59;8.60;58.00
12847;DHT22;6492;48.128;8.320;2023-03-23T21:06:03;8.50;58.40
12847;DHT22;6492;48.128;8.320;2023-03-23T21:10:07;8.50;58.60
12847;DHT22;6492;48.128;8.320;2023-03-23T21:14:16;8.50;58.70
12847;DHT22;6492;48.128;8.320;2023-03-23T21:18:28;8.50;58.90
12847;DHT22;6492;48.128;8.320;2023-03-23T21:22:30;8.50;58.70
12847;DHT22;6492;48.128;8.320;2023-03-23T21:26:39;8.40;58.40
12847;DHT22;6492;48.128;8.320;2023-03-23T21:30:45;8.40;58.50
12847;DHT22;6492;48.128;8.320;2023-03-23T21:34:53;8.30;58.60
12847;DHT22;6492;48.128;8.320;2023-03-23T21:38:58;8.30;58.30
12847;DHT22;6492;48.128;8.320;2023-03-23T21:43:02;8.30;58.60
12847;DHT22;6492;48.128;8.320;2023-03-23T21:47:04;8.30;58.60
12847;DHT22;6492;48.128;8.320;2023-03-23T21:51:17;8.20;58.20
12847;DHT22;6492;48.128;8.320;2023-03-23T21:55:39;8.20;57.90
12847;DHT22;6492;48.128;8.320;2023-03-23T21:59:45;8.20;57.50
12847;DHT22;6492;48.128;8.320;2023-03-23T22:03:54;8.10;57.30
12847;DHT22;6492;48.128;8.320;2023-03-23T22:07:56;8.10;56.80
12847;DHT22;6492;48.128;8.320;2023-03-23T22:11:57;8.00;56.60
12847;DHT22;6492;48.128;8.320;2023-03-23T22:16:02;8.00;56.70
12847;DHT22;6492;48.128;8.320;2023-03-23T22:20:06;8.00;57.10
12847;DHT22;6492;48.128;8.320;2023-03-23T22:24:10;8.00;56.80
12847;DHT22;6492;48.128;8.320;2023-03-23T22:28:18;8.00;56.30
12847;DHT22;6492;48.128;8.320;2023-03-23T22:32:21;8.10;55.10
12847;DHT22;6492;48.128;8.320;2023-03-23T22:36:25;8.10;54.40
12847;DHT22;6492;48.128;8.320;2023-03-23T22:40:27;8.10;53.50
12847;DHT22;6492;48.128;8.320;2023-03-23T22:44:29;8.20;49.50
12847;DHT22;6492;48.128;8.320;2023-03-23T22:48:32;8.30;48.90
12847;DHT22;6492;48.128;8.320;2023-03-23T22:52:35;8.40;48.50
12847;DHT22;6492;48.128;8.320;2023-03-23T22:56:38;8.50;47.00
12847;DHT22;6492;48.128;8.320;2023-03-23T23:00:43;8.50;47.20
12847;DHT22;6492;48.128;8.320;2023-03-23T23:04:47;8.60;46.80
12847;DHT22;6492;48.128;8.320;2023-03-23T23:08:49;8.60;47.80
12847;DHT22;6492;48.128;8.320;2023-03-23T23:12:51;8.60;47.30
12847;DHT22;6492;48.128;8.320;2023-03-23T23:16:53;8.60;46.30
12847;DHT22;6492;48.128;8.320;2023-03-23T23:20:58;8.60;46.80
12847;DHT22;6492;48.128;8.320;2023-03-23T23:25:00;8.70;48.00
12847;DHT22;6492;48.128;8.320;2023-03-23T23:29:02;8.70;49.10
12847;DHT22;6492;48.128;8.320;2023-03-23T23:33:04;8.60;49.30
12847;DHT22;6492;48.128;8.320;2023-03-23T23:37:08;8.50;50.20
12847;DHT22;6492;48.128;8.320;2023-03-23T23:41:10;8.50;51.00
12847;DHT22;6492;48.128;8.320;2023-03-23T23:45:13;8.50;51.60
12847;DHT22;6492;48.128;8.320;2023-03-23T23:49:15;8.40;52.80
12847;DHT22;6492;48.128;8.320;2023-03-23T23:53:18;8.40;53.40
12847;DHT22;6492;48.128;8.320;2023-03-23T23:57:22;8.40;53.60
